createdAt,value
2022-08-30T00:02:02.672Z,2.70
2022-08-30T00:04:29.560Z,2.70
2022-08-30T00:06:56.467Z,2.70
2022-08-30T00:09:23.319Z,3.00
2022-08-30T00:11:51.985Z,2.50
2022-08-30T00:14:20.267Z,3.10
2022-08-30T00:16:47.110Z,2.70
2022-08-30T00:19:13.972Z,2.70
2022-08-30T00:21:40.942Z,3.00
2022-08-30T00:24:07.753Z,3.10
2022-08-30T00:26:34.683Z,2.57
2022-08-30T00:29:01.554Z,2.67
2022-08-30T00:31:28.573Z,2.73
2022-08-30T00:33:55.445Z,2.70
2022-08-30T00:36:22.214Z,2.77
2022-08-30T00:38:49.012Z,2.60
2022-08-30T00:41:15.929Z,2.47
2022-08-30T00:43:42.789Z,2.50
2022-08-30T00:46:10.253Z,2.33
2022-08-30T00:48:47.717Z,2.77
2022-08-30T00:51:16.040Z,2.47
2022-08-30T00:53:49.401Z,2.40
2022-08-30T00:56:18.623Z,2.17
2022-08-30T00:58:50.574Z,2.33
2022-08-30T01:01:18.889Z,2.23
2022-08-30T01:03:47.124Z,2.60
2022-08-30T01:06:15.667Z,2.57
2022-08-30T01:08:46.700Z,2.23
2022-08-30T01:11:19.888Z,2.50
2022-08-30T01:13:48.624Z,2.23
2022-08-30T01:16:16.201Z,2.63
2022-08-30T01:18:44.699Z,2.30
2022-08-30T01:21:34.075Z,3.00
2022-08-30T01:24:02.723Z,2.57
2022-08-30T01:26:31.358Z,2.47
2022-08-30T01:29:05.335Z,2.90
2022-08-30T01:31:34.477Z,2.30
2022-08-30T01:34:02.225Z,2.53
2022-08-30T01:36:29.428Z,2.40
2022-08-30T01:38:58.267Z,3.17
2022-08-30T01:41:31.314Z,2.60
2022-08-30T01:44:03.578Z,2.73
2022-08-30T01:46:38.451Z,2.70
2022-08-30T01:49:11.110Z,2.73
2022-08-30T01:51:39.558Z,2.90
2022-08-30T01:54:07.479Z,2.80
2022-08-30T01:56:34.858Z,3.00
2022-08-30T01:59:03.144Z,2.80
2022-08-30T02:01:33.291Z,3.30
2022-08-30T02:04:00.571Z,2.67
2022-08-30T02:06:27.934Z,2.97
2022-08-30T02:08:55.020Z,3.17
2022-08-30T02:11:21.790Z,3.00
2022-08-30T02:13:48.639Z,3.40
2022-08-30T02:16:22.598Z,2.87
2022-08-30T02:18:54.258Z,2.87
2022-08-30T02:21:21.468Z,2.80
2022-08-30T02:23:48.351Z,3.30
2022-08-30T02:26:16.866Z,3.00
2022-08-30T02:28:49.735Z,2.70
2022-08-30T02:31:21.292Z,3.37
2022-08-30T02:33:51.991Z,3.17
2022-08-30T02:36:21.456Z,2.87
2022-08-30T02:38:50.402Z,3.17
2022-08-30T02:41:18.788Z,3.07
2022-08-30T02:43:46.003Z,3.30
2022-08-30T02:46:14.338Z,3.07
2022-08-30T02:48:41.231Z,3.27
2022-08-30T02:51:12.228Z,3.03
2022-08-30T02:53:42.100Z,3.00
2022-08-30T02:56:09.540Z,2.80
2022-08-30T02:58:37.956Z,2.80
2022-08-30T03:01:06.083Z,2.87
2022-08-30T03:03:33.681Z,2.93
2022-08-30T03:06:03.155Z,3.10
2022-08-30T03:08:31.212Z,3.10
2022-08-30T03:10:59.285Z,3.20
2022-08-30T03:13:26.108Z,3.03
2022-08-30T03:15:53.040Z,3.10
2022-08-30T03:18:21.699Z,3.20
2022-08-30T03:20:54.397Z,3.33
2022-08-30T03:23:23.931Z,3.87
2022-08-30T03:25:51.637Z,3.27
2022-08-30T03:28:18.436Z,3.30
2022-08-30T03:30:45.391Z,3.10
2022-08-30T03:33:12.288Z,3.33
2022-08-30T03:35:39.053Z,3.53
2022-08-30T03:38:06.312Z,3.83
2022-08-30T03:40:33.304Z,3.63
2022-08-30T03:43:00.934Z,3.80
2022-08-30T03:45:28.120Z,3.57
2022-08-30T03:47:55.319Z,3.30
2022-08-30T03:50:22.701Z,3.10
2022-08-30T03:52:49.505Z,3.57
2022-08-30T03:55:16.612Z,3.20
2022-08-30T03:57:43.870Z,3.60
2022-08-30T04:00:13.079Z,3.13
2022-08-30T04:02:40.799Z,3.20
2022-08-30T04:05:09.860Z,3.30
2022-08-30T04:07:37.061Z,2.93
2022-08-30T04:10:07.489Z,3.47
2022-08-30T04:12:34.393Z,3.30
2022-08-30T04:15:01.222Z,3.13
2022-08-30T04:17:28.385Z,3.40
2022-08-30T04:19:55.240Z,3.57
2022-08-30T04:22:22.078Z,3.33
2022-08-30T04:24:48.867Z,3.33
2022-08-30T04:27:15.776Z,3.40
2022-08-30T04:29:43.756Z,3.47
2022-08-30T04:32:10.601Z,3.30
2022-08-30T04:34:37.441Z,3.17
2022-08-30T04:37:04.389Z,3.60
2022-08-30T04:39:31.618Z,3.20
2022-08-30T04:41:58.754Z,3.50
2022-08-30T04:44:27.382Z,3.20
2022-08-30T04:46:54.566Z,3.57
2022-08-30T04:49:23.021Z,3.47
2022-08-30T04:51:50.171Z,3.17
2022-08-30T04:54:17.091Z,3.33
2022-08-30T04:56:43.886Z,3.93
2022-08-30T04:59:10.673Z,4.13
2022-08-30T05:01:44.918Z,4.40
2022-08-30T05:04:14.296Z,4.57
2022-08-30T05:06:41.800Z,4.10
2022-08-30T05:09:08.606Z,4.03
2022-08-30T05:11:35.397Z,4.30
2022-08-30T05:14:02.275Z,4.20
2022-08-30T05:16:29.164Z,3.93
2022-08-30T05:18:56.252Z,3.97
2022-08-30T05:21:26.548Z,4.23
2022-08-30T05:24:02.452Z,4.43
2022-08-30T05:26:33.649Z,3.97
2022-08-30T05:29:01.197Z,4.17
2022-08-30T05:31:35.379Z,4.13
2022-08-30T05:34:04.109Z,4.00
2022-08-30T05:36:35.052Z,4.53
2022-08-30T05:39:02.026Z,4.13
2022-08-30T05:41:33.321Z,4.17
2022-08-30T05:44:03.946Z,4.10
2022-08-30T05:49:07.508Z,4.17
2022-08-30T05:51:41.134Z,4.10
2022-08-30T05:54:12.780Z,4.10
2022-08-30T05:56:43.190Z,4.10
2022-08-30T05:59:10.031Z,4.63
2022-08-30T06:01:44.693Z,4.03
2022-08-30T06:04:13.378Z,4.47
2022-08-30T06:06:43.443Z,4.23
2022-08-30T06:09:13.525Z,4.27
2022-08-30T06:11:40.728Z,3.90
2022-08-30T06:14:08.194Z,4.10
2022-08-30T06:16:35.918Z,3.87
2022-08-30T06:19:02.890Z,3.90
2022-08-30T06:21:37.984Z,4.10
2022-08-30T06:24:08.776Z,4.00
2022-08-30T06:26:45.053Z,3.83
2022-08-30T06:29:18.370Z,3.90
2022-08-30T06:31:45.640Z,3.80
2022-08-30T06:34:12.887Z,4.20
2022-08-30T06:36:40.362Z,3.80
2022-08-30T06:39:07.669Z,3.60
2022-08-30T06:41:37.486Z,3.23
2022-08-30T06:44:06.106Z,3.70
2022-08-30T06:46:37.745Z,3.40
2022-08-30T06:49:07.549Z,3.33
2022-08-30T06:51:39.673Z,3.63
2022-08-30T06:54:09.161Z,3.50
2022-08-30T06:56:40.319Z,3.90
2022-08-30T06:59:09.773Z,3.57
2022-08-30T07:01:36.618Z,3.90
2022-08-30T07:04:04.670Z,3.90
2022-08-30T07:06:33.421Z,3.40
2022-08-30T07:09:00.207Z,3.57
2022-08-30T07:11:30.122Z,3.37
2022-08-30T07:13:57.453Z,3.60
2022-08-30T07:16:25.354Z,3.50
2022-08-30T07:18:54.991Z,3.43
2022-08-30T07:21:37.666Z,3.50
2022-08-30T07:24:08.787Z,3.03
2022-08-30T07:26:41.343Z,3.60
2022-08-30T07:29:09.120Z,3.70
2022-08-30T07:31:37.494Z,3.50
2022-08-30T07:34:06.859Z,3.10
2022-08-30T07:36:36.214Z,3.80
2022-08-30T07:39:06.501Z,3.33
2022-08-30T07:41:38.481Z,3.00
2022-08-30T07:44:09.145Z,2.83
2022-08-30T07:46:39.222Z,3.30
2022-08-30T07:49:11.214Z,3.17
2022-08-30T07:51:40.545Z,2.90
2022-08-30T07:54:07.925Z,3.07
2022-08-30T07:56:36.965Z,2.90
2022-08-30T07:59:04.544Z,2.67
2022-08-30T08:01:31.830Z,2.77
2022-08-30T08:03:58.804Z,3.47
2022-08-30T08:06:27.672Z,3.47
2022-08-30T08:09:02.440Z,2.87
2022-08-30T08:11:33.616Z,2.77
2022-08-30T08:14:03.179Z,2.77
2022-08-30T08:16:34.012Z,2.53
2022-08-30T08:19:00.912Z,2.57
2022-08-30T08:21:28.320Z,2.60
2022-08-30T08:23:55.537Z,2.70
2022-08-30T08:26:22.935Z,2.83
2022-08-30T08:28:49.875Z,2.40
2022-08-30T08:31:31.522Z,2.93
2022-08-30T08:34:02.912Z,2.40
2022-08-30T08:36:31.287Z,2.80
2022-08-30T08:38:58.944Z,2.57
2022-08-30T08:41:51.816Z,2.60
2022-08-30T08:44:18.517Z,2.80
2022-08-30T08:46:58.463Z,2.80
2022-08-30T08:49:25.679Z,2.50
2022-08-30T08:52:13.395Z,2.60
2022-08-30T08:54:59.230Z,2.37
2022-08-30T08:57:33.434Z,2.87
2022-08-30T09:00:00.354Z,2.90
2022-08-30T09:02:43.528Z,2.73
2022-08-30T09:05:18.215Z,3.23
2022-08-30T09:07:52.228Z,2.87
2022-08-30T09:10:40.428Z,2.70
2022-08-30T09:13:08.286Z,2.70
2022-08-30T09:15:40.782Z,2.57
2022-08-30T09:18:19.626Z,2.70
2022-08-30T09:20:51.415Z,2.83
2022-08-30T09:23:29.920Z,2.70
2022-08-30T09:26:01.002Z,2.97
2022-08-30T09:28:49.311Z,2.47
2022-08-30T09:31:24.378Z,2.60
2022-08-30T09:34:09.626Z,2.97
2022-08-30T09:36:52.865Z,2.77
2022-08-30T09:39:28.230Z,2.67
2022-08-30T09:42:13.291Z,2.83
2022-08-30T09:44:40.253Z,2.53
2022-08-30T09:47:42.833Z,2.55
2022-08-30T09:50:21.090Z,2.90
2022-08-30T09:53:23.623Z,2.70
2022-08-30T09:56:18.665Z,2.70
2022-08-30T09:59:42.934Z,2.25
2022-08-30T10:02:43.147Z,2.38
2022-08-30T10:05:43.810Z,2.13
2022-08-30T10:08:37.975Z,2.47
2022-08-30T10:11:27.538Z,2.50
2022-08-30T10:13:57.781Z,2.80
2022-08-30T10:16:39.555Z,2.88
2022-08-30T10:19:30.332Z,3.10
2022-08-30T10:22:46.479Z,2.60
2022-08-30T10:25:24.203Z,3.05
2022-08-30T10:28:10.873Z,2.90
2022-08-30T10:30:43.948Z,2.63
2022-08-30T10:33:23.194Z,3.05
2022-08-30T10:36:01.778Z,2.78
2022-08-30T10:38:37.778Z,2.70
2022-08-30T10:41:36.437Z,3.15
2022-08-30T10:44:31.254Z,3.08
2022-08-30T10:47:06.173Z,3.25
2022-08-30T10:49:42.207Z,2.95
2022-08-30T10:52:51.869Z,3.17
2022-08-30T10:55:26.874Z,3.00
2022-08-30T10:57:58.394Z,3.05
2022-08-30T11:00:51.602Z,3.47
2022-08-30T11:03:49.148Z,3.33
2022-08-30T11:06:31.540Z,3.30
2022-08-30T11:09:13.802Z,3.33
2022-08-30T11:12:32.557Z,3.47
2022-08-30T11:15:11.906Z,3.67
2022-08-30T11:17:57.505Z,3.63
2022-08-30T11:20:50.763Z,2.97
2022-08-30T11:23:33.027Z,3.80
2022-08-30T11:26:15.959Z,3.40
2022-08-30T11:28:47.339Z,3.42
2022-08-30T11:31:23.561Z,6.60
2022-08-30T11:33:59.561Z,3.80
2022-08-30T11:36:37.541Z,3.38
2022-08-30T11:39:07.187Z,3.90
2022-08-30T11:41:47.925Z,3.75
2022-08-30T11:44:32.427Z,3.30
2022-08-30T11:47:22.407Z,3.60
2022-08-30T11:50:16.161Z,3.92
2022-08-30T11:53:04.110Z,3.50
2022-08-30T11:55:36.941Z,3.53
2022-08-30T11:58:31.096Z,3.50
2022-08-30T12:01:51.127Z,3.03
2022-08-30T12:04:16.991Z,3.00
2022-08-30T12:06:59.067Z,3.42
2022-08-30T12:09:26.481Z,3.20
2022-08-30T12:12:31.207Z,3.05
2022-08-30T12:14:59.595Z,3.30
2022-08-30T12:18:15.406Z,3.03
2022-08-30T12:20:47.298Z,3.38
2022-08-30T12:23:38.091Z,3.28
2022-08-30T12:26:16.965Z,3.60
2022-08-30T12:28:51.268Z,3.35
2022-08-30T12:31:25.982Z,3.67
2022-08-30T12:34:01.015Z,3.38
2022-08-30T12:37:08.041Z,3.15
2022-08-30T12:39:43.888Z,3.30
2022-08-30T12:42:35.105Z,3.55
2022-08-30T12:45:11.584Z,3.42
2022-08-30T12:48:12.271Z,3.20
2022-08-30T12:50:53.653Z,2.83
2022-08-30T12:53:46.963Z,3.20
2022-08-30T12:56:35.070Z,3.13
2022-08-30T12:59:05.362Z,3.38
2022-08-30T13:01:35.805Z,3.30
